createdAt,value
2015-10-22T00:00:44.617Z,90.2
2015-10-22T00:01:44.554Z,89.9
2015-10-22T00:02:44.494Z,89.5
2015-10-22T00:03:44.449Z,90.2
2015-10-22T00:04:44.403Z,90.4
2015-10-22T00:05:44.328Z,90
2015-10-22T00:06:44.267Z,89.8
2015-10-22T00:07:44.222Z,89.7
2015-10-22T00:08:44.411Z,89.7
2015-10-22T00:09:44.114Z,89.7
2015-10-22T00:10:44.054Z,89.9
2015-10-22T00:11:44.010Z,89.5
2015-10-22T00:12:43.949Z,89.6
2015-10-22T00:13:43.890Z,89.8
2015-10-22T00:14:44.064Z,89.9
2015-10-22T00:15:43.786Z,89.6
2015-10-22T00:16:43.726Z,89.4
2015-10-22T00:17:43.681Z,89.1
2015-10-22T00:18:43.622Z,89.1
2015-10-22T00:19:43.562Z,89.2
2015-10-22T00:20:43.518Z,89
2015-10-22T00:21:43.458Z,89.3
2015-10-22T00:22:43.430Z,89.5
2015-10-22T00:23:43.354Z,89.6
2015-10-22T00:24:43.294Z,89.9
2015-10-22T00:25:43.234Z,89.8
2015-10-22T00:26:43.191Z,89.7
2015-10-22T00:27:43.146Z,89.6
2015-10-22T00:28:43.071Z,89.9
2015-10-22T00:29:43.027Z,90.2
2015-10-22T00:30:42.967Z,89.7
2015-10-22T00:31:42.908Z,89.7
2015-10-22T00:32:42.847Z,90
2015-10-22T00:33:42.803Z,89.7
2015-10-22T00:34:42.744Z,89.6
2015-10-22T00:35:42.684Z,89.6
2015-10-22T00:36:42.639Z,89.8
2015-10-22T00:37:42.580Z,89.8
2015-10-22T00:38:42.519Z,89.8
2015-10-22T00:39:42.476Z,90.1
2015-10-22T00:40:42.416Z,90
2015-10-22T00:41:42.371Z,90.3
2015-10-22T00:42:42.297Z,90.4
2015-10-22T00:43:42.252Z,90.3
2015-10-22T00:44:42.193Z,90.3
2015-10-22T00:45:42.133Z,90.2
2015-10-22T00:46:42.073Z,90.3
2015-10-22T00:47:42.263Z,90.2
2015-10-22T00:48:41.985Z,89.8
2015-10-22T00:49:41.910Z,89.9
2015-10-22T00:50:41.865Z,90.2
2015-10-22T00:51:41.805Z,90.3
2015-10-22T00:52:41.745Z,90.5
2015-10-22T00:53:41.702Z,90
2015-10-22T00:54:41.642Z,90.1
2015-10-22T00:55:41.582Z,89.3
2015-10-22T00:56:41.538Z,90.1
2015-10-22T00:57:41.478Z,89.7
2015-10-22T00:58:41.418Z,89.3
2015-10-22T00:59:41.374Z,88.6
2015-10-22T01:00:41.315Z,89.6
2015-10-22T01:01:41.258Z,89.5
2015-10-22T01:02:41.214Z,89.2
2015-10-22T01:03:41.154Z,88.9
2015-10-22T01:04:41.095Z,88.4
2015-10-22T01:05:41.035Z,89.2
2015-10-22T01:06:40.990Z,88.6
2015-10-22T01:07:40.931Z,88.2
2015-10-22T01:08:40.887Z,88.8
2015-10-22T01:09:40.827Z,89.7
2015-10-22T01:10:41.002Z,90.1
2015-10-22T01:11:40.724Z,89.6
2015-10-22T01:12:40.663Z,89.7
2015-10-22T01:13:40.604Z,90
2015-10-22T01:14:40.559Z,90.4
2015-10-22T01:15:40.484Z,90.2
2015-10-22T01:16:40.440Z,89.5
2015-10-22T01:17:40.379Z,89.1
2015-10-22T01:18:40.335Z,89.5
2015-10-22T01:19:40.276Z,90
2015-10-22T01:20:40.216Z,89.9
2015-10-22T01:21:40.391Z,89.3
2015-10-22T01:22:40.128Z,89.4
2015-10-22T01:23:40.053Z,90
2015-10-22T01:24:39.993Z,90.5
2015-10-22T01:25:39.933Z,91
2015-10-22T01:26:39.889Z,91
2015-10-22T01:27:39.829Z,90.9
2015-10-22T01:28:39.050Z,90.9
2015-10-22T01:29:39.725Z,89.6
2015-10-22T01:30:39.681Z,90.3
2015-10-22T01:31:39.603Z,90.1
2015-10-22T01:32:39.559Z,90.3
2015-10-22T01:33:39.483Z,90.3
2015-10-22T01:34:39.439Z,90.6
2015-10-22T01:35:39.395Z,90.7
2015-10-22T01:36:39.335Z,90.5
2015-10-22T01:37:39.291Z,90.2
2015-10-22T01:38:39.216Z,89.3
2015-10-22T01:39:39.406Z,89.5
2015-10-22T01:40:39.111Z,89.4
2015-10-22T01:41:39.286Z,88.8
2015-10-22T01:42:39.007Z,89.6
2015-10-22T01:43:38.214Z,90.3
2015-10-22T01:44:39.122Z,89.8
2015-10-22T01:45:38.844Z,89.9
2015-10-22T01:46:38.784Z,89.1
2015-10-22T01:47:38.724Z,89.7
2015-10-22T01:48:38.664Z,90.1
2015-10-22T01:49:38.636Z,89.6
2015-10-22T01:50:37.811Z,89.6
2015-10-22T01:51:38.501Z,89.3
2015-10-22T01:52:38.441Z,89
2015-10-22T01:53:38.381Z,89.3
2015-10-22T01:54:38.337Z,90.2
2015-10-22T01:55:38.293Z,90
2015-10-22T01:56:38.218Z,89.6
2015-10-22T01:57:38.173Z,89.1
2015-10-22T01:58:38.129Z,89.2
2015-10-22T01:59:38.059Z,89.3
2015-10-22T02:00:38.234Z,89.5
2015-10-22T02:01:37.954Z,89.3
2015-10-22T02:02:37.895Z,89.2
2015-10-22T02:03:37.851Z,88.9
2015-10-22T02:04:37.776Z,89.1
2015-10-22T02:05:37.732Z,89.4
2015-10-22T02:06:37.671Z,89.5
2015-10-22T02:07:37.628Z,89.2
2015-10-22T02:08:37.567Z,89.3
2015-10-22T02:09:37.523Z,89.2
2015-10-22T02:10:37.698Z,89.9
2015-10-22T02:11:37.404Z,89.2
2015-10-22T02:12:37.344Z,88.6
2015-10-22T02:13:37.300Z,89.1
2015-10-22T02:14:37.240Z,89.3
2015-10-22T02:15:37.181Z,89.4
2015-10-22T02:16:37.137Z,90.1
2015-10-22T02:17:37.061Z,91.1
2015-10-22T02:18:37.032Z,91.4
2015-10-22T02:19:36.957Z,91.5
2015-10-22T02:20:36.913Z,90.2
2015-10-22T02:21:36.853Z,90.2
2015-10-22T02:22:36.809Z,90.2
2015-10-22T02:23:36.749Z,90.6
2015-10-22T02:24:36.690Z,90.4
2015-10-22T02:25:36.630Z,90.2
2015-10-22T02:26:36.569Z,90.2
2015-10-22T02:27:36.511Z,90.3
2015-10-22T02:28:36.466Z,90
2015-10-22T02:29:36.406Z,89.9
2015-10-22T02:30:36.361Z,89.7
2015-10-22T02:31:36.302Z,89.8
2015-10-22T02:32:36.242Z,90
2015-10-22T02:33:36.182Z,90.4
2015-10-22T02:34:36.138Z,91.2
2015-10-22T02:35:36.079Z,91.1
2015-10-22T02:36:36.019Z,91.2
2015-10-22T02:37:35.975Z,90.8
2015-10-22T02:38:35.915Z,90.7
2015-10-22T02:39:35.871Z,91.2
2015-10-22T02:40:36.045Z,91.5
2015-10-22T02:41:35.751Z,91.7
2015-10-22T02:42:35.691Z,91.8
2015-10-22T02:43:35.646Z,92.4
2015-10-22T02:44:35.588Z,92.1
2015-10-22T02:45:35.543Z,92
2015-10-22T02:46:35.481Z,92.1
2015-10-22T02:47:35.421Z,91.8
2015-10-22T02:48:35.376Z,91.5
2015-10-22T02:49:35.317Z,91.1
2015-10-22T02:50:35.257Z,90.7
2015-10-22T02:51:35.198Z,90.5
2015-10-22T02:52:35.154Z,90.4
2015-10-22T02:53:35.109Z,90.3
2015-10-22T02:54:35.049Z,90.7
2015-10-22T02:55:35.224Z,90.8
2015-10-22T02:56:34.945Z,90.9
2015-10-22T02:57:34.881Z,91.2
2015-10-22T02:58:34.821Z,91.5
2015-10-22T02:59:34.776Z,91.4
2015-10-22T03:00:34.718Z,91.6
2015-10-22T03:01:34.673Z,91.9
2015-10-22T03:02:34.613Z,91.7
2015-10-22T03:03:34.554Z,91.4
2015-10-22T03:04:34.510Z,91.3
2015-10-22T03:05:34.450Z,90.8
2015-10-22T03:06:34.406Z,90.4
2015-10-22T03:07:34.330Z,90.2
2015-10-22T03:08:34.301Z,90.2
2015-10-22T03:09:34.226Z,89.9
2015-10-22T03:10:34.181Z,89.8
2015-10-22T03:11:34.137Z,89.4
2015-10-22T03:12:34.062Z,89.5
2015-10-22T03:13:34.033Z,89.3
2015-10-22T03:14:33.959Z,89.1
2015-10-22T03:15:33.898Z,88.9
2015-10-22T03:16:33.855Z,89.2
2015-10-22T03:17:33.795Z,89.1
2015-10-22T03:18:33.736Z,89.4
2015-10-22T03:19:33.691Z,89.7
2015-10-22T03:20:33.866Z,89.7
2015-10-22T03:21:33.649Z,89.6
2015-10-22T03:22:33.527Z,89.2
2015-10-22T03:23:33.483Z,88.9
2015-10-22T03:24:33.408Z,88.9
2015-10-22T03:25:33.379Z,88.7
2015-10-22T03:26:33.335Z,88.6
2015-10-22T03:27:33.135Z,89.3
2015-10-22T03:28:33.216Z,89.8
2015-10-22T03:29:33.155Z,90.2
2015-10-22T03:30:33.330Z,90.2
2015-10-22T03:31:33.036Z,90.2
2015-10-22T03:32:32.992Z,90.4
2015-10-22T03:33:33.072Z,89.9
2015-10-22T03:34:32.872Z,89.7
2015-10-22T03:35:32.828Z,89.6
2015-10-22T03:36:33.002Z,90.3
2015-10-22T03:37:32.724Z,90.4
2015-10-22T03:38:32.665Z,90.3
2015-10-22T03:39:32.621Z,89.8
2015-10-22T03:40:32.685Z,89.9
2015-10-22T03:41:32.626Z,90.2
2015-10-22T03:42:32.441Z,90
2015-10-22T03:43:32.381Z,90.2
2015-10-22T03:44:32.338Z,90.5
2015-10-22T03:45:32.293Z,90.6
2015-10-22T03:46:32.232Z,90.5
2015-10-22T03:47:32.205Z,90.1
2015-10-22T03:48:32.113Z,89.8
2015-10-22T03:49:32.069Z,89.6
2015-10-22T03:50:32.088Z,89.3
2015-10-22T03:51:31.965Z,89.8
2015-10-22T03:52:31.906Z,90
2015-10-22T03:53:31.939Z,89.9
2015-10-22T03:54:31.848Z,89.5
2015-10-22T03:55:31.882Z,89.3
2015-10-22T03:56:31.682Z,89.1
2015-10-22T03:57:31.654Z,88.8
2015-10-22T03:58:31.704Z,88.8
2015-10-22T03:59:31.518Z,88.6
2015-10-22T04:00:31.553Z,88.6
2015-10-22T04:01:31.414Z,88.8
2015-10-22T04:02:31.386Z,89.8
2015-10-22T04:03:31.326Z,89.9
2015-10-22T04:04:31.656Z,89.9
2015-10-22T04:05:31.222Z,89.6
2015-10-22T04:06:31.144Z,89.7
2015-10-22T04:07:31.119Z,89.8
2015-10-22T04:08:30.293Z,89.4
2015-10-22T04:09:30.984Z,89
2015-10-22T04:10:30.924Z,89.1
2015-10-22T04:11:30.879Z,88.7
2015-10-22T04:12:30.820Z,88.5
2015-10-22T04:13:30.776Z,88.5
2015-10-22T04:14:30.717Z,88.6
2015-10-22T04:15:30.891Z,88.7
2015-10-22T04:16:30.612Z,88.6
2015-10-22T04:17:30.568Z,88.6
2015-10-22T04:18:30.509Z,88.6
2015-10-22T04:19:30.449Z,88.6
2015-10-22T04:20:30.389Z,88.8
2015-10-22T04:21:30.329Z,88.8
2015-10-22T04:22:30.301Z,88.8
2015-10-22T04:23:30.241Z,88.8
2015-10-22T04:24:30.181Z,89.1
2015-10-22T04:25:30.122Z,89.1
2015-10-22T04:26:30.061Z,88.9
2015-10-22T04:27:30.033Z,88.6
2015-10-22T04:28:29.973Z,88.7
2015-10-22T04:29:29.914Z,89
2015-10-22T04:30:29.854Z,89.5
2015-10-22T04:31:29.809Z,89.3
2015-10-22T04:32:29.750Z,89
2015-10-22T04:33:29.689Z,88.6
2015-10-22T04:34:29.880Z,88.5
2015-10-22T04:35:29.586Z,88.4
2015-10-22T04:36:29.542Z,88.5
2015-10-22T04:37:29.483Z,88.1
2015-10-22T04:38:29.422Z,88.1
2015-10-22T04:39:29.363Z,88.1
2015-10-22T04:40:29.319Z,87.8
2015-10-22T04:41:29.275Z,87.8
2015-10-22T04:42:29.214Z,87.8
2015-10-22T04:43:29.155Z,87.9
2015-10-22T04:44:29.094Z,88.5
2015-10-22T04:45:29.051Z,88.6
2015-10-22T04:46:29.008Z,88.5
2015-10-22T04:47:28.947Z,89
2015-10-22T04:48:28.888Z,89.3
2015-10-22T04:49:28.827Z,89.5
2015-10-22T04:50:28.783Z,89.6
2015-10-22T04:51:28.724Z,89.9
2015-10-22T04:52:28.913Z,89.3
2015-10-22T04:53:28.620Z,89.5
2015-10-22T04:54:28.576Z,89.7
2015-10-22T04:55:28.516Z,89.6
2015-10-22T04:56:28.457Z,89.6
2015-10-22T04:57:28.412Z,89.8
2015-10-22T04:58:28.352Z,89.7
2015-10-22T04:59:28.308Z,89.9
2015-10-22T05:00:28.248Z,89.8
2015-10-22T05:01:28.188Z,89.7
2015-10-22T05:02:28.144Z,89.8
2015-10-22T05:03:28.100Z,90
2015-10-22T05:04:28.040Z,90
2015-10-22T05:05:27.965Z,90
2015-10-22T05:06:27.921Z,90
2015-10-22T05:07:27.876Z,90.2
2015-10-22T05:08:27.817Z,90
2015-10-22T05:09:27.756Z,90
2015-10-22T05:10:27.713Z,89.9
2015-10-22T05:11:27.653Z,90.1
2015-10-22T05:12:27.811Z,90.1
2015-10-22T05:13:27.784Z,90.1
2015-10-22T05:14:27.505Z,90.1
2015-10-22T05:15:27.461Z,90.2
2015-10-22T05:16:27.401Z,90.3
2015-10-22T05:17:27.342Z,90.3
2015-10-22T05:18:27.281Z,90.2
2015-10-22T05:19:27.237Z,90.3
2015-10-22T05:20:27.412Z,90.4
2015-10-22T05:21:27.131Z,90.4
2015-10-22T05:22:27.070Z,90.1
2015-10-22T05:23:27.027Z,90.3
2015-10-22T05:24:26.967Z,90.3
2015-10-22T05:25:26.907Z,90.4
2015-10-22T05:26:26.847Z,90.5
2015-10-22T05:27:27.038Z,90.8
2015-10-22T05:28:26.743Z,90.8
2015-10-22T05:29:26.700Z,90.6
2015-10-22T05:30:26.655Z,90.5
2015-10-22T05:31:26.580Z,90.6
2015-10-22T05:32:26.536Z,90.7
2015-10-22T05:33:26.475Z,91
2015-10-22T05:34:26.432Z,91.2
2015-10-22T05:35:26.371Z,91.6
2015-10-22T05:36:26.313Z,91.7
2015-10-22T05:37:26.268Z,91.4
2015-10-22T05:38:26.208Z,91.4
2015-10-22T05:39:26.163Z,91.3
2015-10-22T05:40:26.104Z,91.3
2015-10-22T05:41:26.044Z,91.3
2015-10-22T05:42:25.250Z,91.7
2015-10-22T05:43:25.941Z,91.8
2015-10-22T05:44:25.896Z,91.6
2015-10-22T05:45:25.837Z,91.5
2015-10-22T05:46:25.792Z,91.9
2015-10-22T05:47:25.733Z,92
2015-10-22T05:48:25.673Z,91.3
2015-10-22T05:49:25.629Z,91.7
2015-10-22T05:50:25.569Z,91.8
2015-10-22T05:51:25.524Z,91.9
2015-10-22T05:52:25.465Z,92.1
2015-10-22T05:53:25.420Z,92.4
2015-10-22T05:54:25.596Z,92.2
2015-10-22T05:55:25.317Z,91.6
2015-10-22T05:56:25.256Z,91.7
2015-10-22T05:57:25.197Z,92.1
2015-10-22T05:58:25.153Z,92.6
2015-10-22T05:59:25.109Z,92.4
2015-10-22T06:00:25.034Z,92.4
2015-10-22T06:01:24.989Z,92.1
2015-10-22T06:02:24.929Z,92.2
2015-10-22T06:03:24.870Z,92.4
2015-10-22T06:04:24.919Z,92.7
2015-10-22T06:05:25.001Z,93.3
2015-10-22T06:06:24.722Z,93.1
2015-10-22T06:07:24.662Z,93
2015-10-22T06:08:24.617Z,92.8
2015-10-22T06:09:24.558Z,92.5
2015-10-22T06:10:24.498Z,92.3
2015-10-22T06:11:24.453Z,92.4
2015-10-22T06:12:24.394Z,92.6
2015-10-22T06:13:24.334Z,93
2015-10-22T06:14:24.431Z,92.8
2015-10-22T06:15:24.230Z,92.5
2015-10-22T06:16:24.187Z,92.3
2015-10-22T06:17:24.142Z,91.6
2015-10-22T06:18:24.083Z,91.4
2015-10-22T06:19:24.023Z,91.1
2015-10-22T06:20:23.978Z,90.9
2015-10-22T06:21:23.903Z,90.9
2015-10-22T06:22:23.859Z,90.8
2015-10-22T06:23:23.815Z,90.9
2015-10-22T06:24:23.755Z,91
2015-10-22T06:25:23.696Z,90.9
2015-10-22T06:26:23.651Z,90.7
2015-10-22T06:27:23.592Z,90.6
2015-10-22T06:28:23.532Z,90.6
2015-10-22T06:29:23.488Z,90.5
2015-10-22T06:30:23.428Z,90.5
2015-10-22T06:31:23.368Z,90.4
2015-10-22T06:32:23.324Z,90.5
2015-10-22T06:33:23.264Z,90.5
2015-10-22T06:34:23.220Z,90.5
2015-10-22T06:35:23.160Z,90.5
2015-10-22T06:36:23.098Z,90.8
2015-10-22T06:37:23.069Z,91
2015-10-22T06:38:22.993Z,90.9
2015-10-22T06:39:22.949Z,91
2015-10-22T06:40:22.890Z,90.7
2015-10-22T06:41:22.830Z,90.9
2015-10-22T06:42:23.021Z,90.7
2015-10-22T06:43:22.726Z,90.7
2015-10-22T06:44:22.681Z,90.5
2015-10-22T06:45:22.623Z,90.7
2015-10-22T06:46:22.563Z,90.8
2015-10-22T06:47:22.518Z,90.9
2015-10-22T06:48:22.459Z,90.5
2015-10-22T06:49:22.415Z,90.5
2015-10-22T06:50:22.354Z,91.5
2015-10-22T06:51:22.295Z,91.2
2015-10-22T06:52:22.266Z,91.4
2015-10-22T06:53:22.191Z,91.9
2015-10-22T06:54:22.147Z,92.6
2015-10-22T06:55:22.087Z,92
2015-10-22T06:56:21.293Z,91.9
2015-10-22T06:57:21.983Z,91.7
2015-10-22T06:58:21.939Z,91.8
2015-10-22T06:59:21.879Z,92.1
2015-10-22T07:00:21.820Z,92
2015-10-22T07:01:22.009Z,91.7
2015-10-22T07:02:21.731Z,91.7
2015-10-22T07:03:21.671Z,91.8
2015-10-22T07:04:21.611Z,91.8
2015-10-22T07:05:21.567Z,92
2015-10-22T07:06:21.538Z,91.6
2015-10-22T07:07:21.463Z,92.1
2015-10-22T07:08:21.419Z,93.2
2015-10-22T07:09:21.343Z,92.9
2015-10-22T07:10:21.299Z,92.4
2015-10-22T07:11:21.475Z,92.2
2015-10-22T07:12:21.180Z,92.1
2015-10-22T07:13:21.136Z,92.7
2015-10-22T07:14:21.091Z,93.2
2015-10-22T07:15:21.032Z,93
2015-10-22T07:16:20.988Z,93.2
2015-10-22T07:17:20.912Z,92.5
2015-10-22T07:18:20.869Z,92
2015-10-22T07:19:20.824Z,92.1
2015-10-22T07:20:20.764Z,92.8
2015-10-22T07:21:20.709Z,92.3
2015-10-22T07:22:20.665Z,91.5
2015-10-22T07:23:20.605Z,91
2015-10-22T07:24:20.546Z,92.4
2015-10-22T07:25:20.485Z,91.2
2015-10-22T07:26:20.442Z,91.6
2015-10-22T07:27:20.429Z,92.5
2015-10-22T07:28:20.338Z,92.1
2015-10-22T07:29:20.293Z,91.8
2015-10-22T07:30:20.234Z,91.3
2015-10-22T07:31:20.189Z,91.1
2015-10-22T07:32:20.130Z,91.7
2015-10-22T07:33:20.087Z,91.2
2015-10-22T07:34:20.026Z,90.2
2015-10-22T07:35:19.981Z,90.3
2015-10-22T07:36:19.923Z,90.1
2015-10-22T07:37:19.862Z,89.5
2015-10-22T07:38:19.818Z,89.7
2015-10-22T07:39:19.759Z,89.7
2015-10-22T07:40:19.715Z,89.8
2015-10-22T07:41:19.670Z,89.7
2015-10-22T07:42:19.611Z,89.5
2015-10-22T07:43:19.551Z,89.1
2015-10-22T07:44:19.491Z,89.2
2015-10-22T07:45:19.447Z,89.3
2015-10-22T07:46:19.387Z,89.7
2015-10-22T07:47:19.343Z,89.2
2015-10-22T07:48:19.283Z,89.3
2015-10-22T07:49:19.239Z,89.2
2015-10-22T07:50:19.194Z,89
2015-10-22T07:51:19.135Z,89.1
2015-10-22T07:52:19.072Z,88.7
2015-10-22T07:53:19.013Z,89.3
2015-10-22T07:54:18.969Z,89.2
2015-10-22T07:55:18.909Z,89.5
2015-10-22T07:56:19.099Z,90.1
2015-10-22T07:57:18.804Z,90.1
2015-10-22T07:58:18.744Z,90.4
2015-10-22T07:59:18.700Z,90.6
2015-10-22T08:00:18.640Z,90.8
2015-10-22T08:01:18.580Z,90.6
2015-10-22T08:02:18.537Z,90.3
2015-10-22T08:03:18.477Z,90.1
2015-10-22T08:04:18.668Z,90.2
2015-10-22T08:05:18.373Z,89.8
2015-10-22T08:06:18.329Z,89.8
2015-10-22T08:07:18.285Z,89.8
2015-10-22T08:08:18.210Z,90
2015-10-22T08:09:18.259Z,90.2
2015-10-22T08:10:18.105Z,91.2
2015-10-22T08:11:18.062Z,91.6
2015-10-22T08:12:18.002Z,90.9
2015-10-22T08:13:17.223Z,90.7
2015-10-22T08:14:17.898Z,89.6
2015-10-22T08:15:17.854Z,90.5
2015-10-22T08:16:18.029Z,91.8
2015-10-22T08:17:17.749Z,91
2015-10-22T08:18:17.689Z,90.7
2015-10-22T08:19:17.629Z,90.4
2015-10-22T08:20:17.587Z,90.5
2015-10-22T08:21:17.542Z,90.2
2015-10-22T08:22:17.482Z,89.5
2015-10-22T08:23:17.437Z,89.2
2015-10-22T08:24:17.378Z,89.2
2015-10-22T08:25:17.318Z,89.6
2015-10-22T08:26:17.274Z,90.2
2015-10-22T08:27:17.215Z,89.9
2015-10-22T08:28:17.311Z,90
2015-10-22T08:29:17.111Z,90
2015-10-22T08:30:17.066Z,88.8
2015-10-22T08:31:17.006Z,88.5
2015-10-22T08:32:16.947Z,88.8
2015-10-22T08:33:16.902Z,89.1
2015-10-22T08:34:16.906Z,88.5
2015-10-22T08:35:16.798Z,88.4
2015-10-22T08:36:16.739Z,87.9
2015-10-22T08:37:16.695Z,88.1
2015-10-22T08:38:16.635Z,88.2
2015-10-22T08:39:16.591Z,87.9
2015-10-22T08:40:16.530Z,87.7
2015-10-22T08:41:16.486Z,87.9
2015-10-22T08:42:16.427Z,87.3
2015-10-22T08:43:16.383Z,87.3
2015-10-22T08:44:16.323Z,87.3
2015-10-22T08:45:16.280Z,87.5
2015-10-22T08:46:16.219Z,87.8
2015-10-22T08:47:16.174Z,87.9
2015-10-22T08:48:16.115Z,88.1
2015-10-22T08:49:16.071Z,88.2
2015-10-22T08:50:16.011Z,88.3
2015-10-22T08:51:15.952Z,88.4
2015-10-22T08:52:15.907Z,88.3
2015-10-22T08:53:15.847Z,88.5
2015-10-22T08:54:15.804Z,88.7
2015-10-22T08:55:15.735Z,88.8
2015-10-22T08:56:15.665Z,88.9
2015-10-22T08:57:15.610Z,89.1
2015-10-22T08:58:15.540Z,89.2
2015-10-22T08:59:15.485Z,89.2
2015-10-22T09:00:15.421Z,88.8
2015-10-22T09:01:15.373Z,88.7
2015-10-22T09:02:15.309Z,88.4
2015-10-22T09:03:15.263Z,88
2015-10-22T09:04:15.199Z,87.7
2015-10-22T09:05:15.153Z,87.8
2015-10-22T09:06:15.092Z,87.7
2015-10-22T09:07:15.031Z,87.5
2015-10-22T09:08:14.985Z,86.2
2015-10-22T09:09:15.158Z,85.9
2015-10-22T09:10:14.877Z,86.2
2015-10-22T09:11:15.051Z,86.2
2015-10-22T09:12:14.773Z,85.9
2015-10-22T09:13:14.728Z,85.7
2015-10-22T09:14:14.667Z,86.3
2015-10-22T09:15:14.608Z,85.7
2015-10-22T09:16:14.563Z,85.4
2015-10-22T09:17:14.503Z,86.1
2015-10-22T09:18:14.458Z,85.9
2015-10-22T09:19:14.399Z,85.9
2015-10-22T09:20:14.355Z,85.4
2015-10-22T09:21:14.295Z,86.3
2015-10-22T09:22:14.251Z,84.9
2015-10-22T09:23:14.191Z,84.9
2015-10-22T09:24:14.146Z,85.2
2015-10-22T09:25:13.353Z,85.3
2015-10-22T09:26:14.043Z,85.3
2015-10-22T09:27:13.999Z,85.6
2015-10-22T09:28:13.940Z,84.8
2015-10-22T09:29:13.880Z,85.1
2015-10-22T09:30:13.835Z,84.5
2015-10-22T09:31:13.776Z,84.4
2015-10-22T09:32:13.732Z,84.7
2015-10-22T09:33:13.671Z,84.7
2015-10-22T09:34:13.627Z,84.3
2015-10-22T09:35:13.568Z,84.4
2015-10-22T09:36:13.508Z,84.5
2015-10-22T09:37:13.464Z,84.7
2015-10-22T09:38:13.420Z,84.8
2015-10-22T09:39:13.359Z,84.9
2015-10-22T09:40:13.300Z,85.5
2015-10-22T09:41:13.256Z,84.6
2015-10-22T09:42:13.212Z,84.9
2015-10-22T09:43:13.152Z,84.6
2015-10-22T09:44:13.108Z,84.6
2015-10-22T09:45:13.049Z,83.5
2015-10-22T09:46:12.989Z,83.8
2015-10-22T09:47:12.945Z,82.6
2015-10-22T09:48:12.900Z,82.7
2015-10-22T09:49:12.840Z,82
2015-10-22T09:50:12.796Z,81.8
2015-10-22T09:51:12.971Z,82.2
2015-10-22T09:52:12.692Z,82.5
2015-10-22T09:53:12.633Z,81.9
2015-10-22T09:54:12.588Z,81.5
2015-10-22T09:55:12.529Z,81.6
2015-10-22T09:56:12.484Z,80.9
2015-10-22T09:57:12.424Z,80.6
2015-10-22T09:58:12.380Z,81.3
2015-10-22T09:59:12.320Z,81.4
2015-10-22T10:00:12.277Z,81.1
2015-10-22T10:01:12.217Z,81.6
2015-10-22T10:02:12.158Z,81.8
2015-10-22T10:03:12.114Z,81.4
2015-10-22T10:04:12.053Z,81.8
2015-10-22T10:05:12.009Z,81.7
2015-10-22T10:06:11.949Z,81.5
2015-10-22T10:07:11.889Z,81.3
2015-10-22T10:08:11.844Z,81.8
2015-10-22T10:09:11.785Z,82.1
2015-10-22T10:10:11.741Z,82.6
2015-10-22T10:11:11.682Z,81.3
2015-10-22T10:12:11.638Z,81.5
2015-10-22T10:13:11.577Z,82.3
2015-10-22T10:14:11.533Z,82.3
2015-10-22T10:15:11.474Z,82.3
2015-10-22T10:16:11.430Z,82.5
2015-10-22T10:17:11.370Z,81.6
2015-10-22T10:18:11.326Z,82.3
2015-10-22T10:19:11.265Z,82.5
2015-10-22T10:20:11.206Z,82.3
2015-10-22T10:21:11.162Z,82.6
2015-10-22T10:22:11.102Z,82.3
2015-10-22T10:23:11.058Z,81.9
2015-10-22T10:24:10.998Z,82.1
2015-10-22T10:25:10.970Z,82
2015-10-22T10:26:10.893Z,81.9
2015-10-22T10:27:10.850Z,81.8
2015-10-22T10:28:11.024Z,82.3
2015-10-22T10:29:10.743Z,82.4
2015-10-22T10:30:10.918Z,82
2015-10-22T10:31:10.639Z,82
2015-10-22T10:32:10.579Z,82.3
2015-10-22T10:33:10.769Z,82.7
2015-10-22T10:34:10.476Z,82.8
2015-10-22T10:35:10.431Z,82.8
2015-10-22T10:36:10.387Z,82.6
2015-10-22T10:37:10.328Z,82.9
2015-10-22T10:38:10.503Z,82.6
2015-10-22T10:39:10.223Z,83
2015-10-22T10:40:10.148Z,82.5
2015-10-22T10:41:10.119Z,82.3
2015-10-22T10:42:10.091Z,82.6
2015-10-22T10:43:10.016Z,82.6
2015-10-22T10:44:09.956Z,82.3
2015-10-22T10:45:09.897Z,82.1
2015-10-22T10:46:09.867Z,82.5
2015-10-22T10:47:10.027Z,82.5
2015-10-22T10:48:09.748Z,82.4
2015-10-22T10:49:09.703Z,82.6
2015-10-22T10:50:09.645Z,82.5
2015-10-22T10:51:09.600Z,82.1
2015-10-22T10:52:09.541Z,82.3
2015-10-22T10:53:09.497Z,82.3
2015-10-22T10:54:09.436Z,82.6
2015-10-22T10:55:09.377Z,82.6
2015-10-22T10:56:09.333Z,82.6
2015-10-22T10:57:09.272Z,82.7
2015-10-22T10:58:09.228Z,82.6
2015-10-22T10:59:09.185Z,82.8
2015-10-22T11:00:08.969Z,82.1
2015-10-22T11:01:08.957Z,82
2015-10-22T11:02:09.069Z,82.2
2015-10-22T11:03:09.014Z,82.2
2015-10-22T11:04:08.928Z,82.2
2015-10-22T11:05:08.883Z,81.8
2015-10-22T11:06:08.808Z,81.8
2015-10-22T11:07:08.763Z,81.6
2015-10-22T11:08:08.720Z,81.8
2015-10-22T11:09:08.660Z,82
2015-10-22T11:10:08.616Z,82.4
2015-10-22T11:11:08.555Z,81.1
2015-10-22T11:12:08.512Z,81.6
2015-10-22T11:13:08.451Z,81.8
2015-10-22T11:14:08.408Z,81.3
2015-10-22T11:15:08.348Z,81.6
2015-10-22T11:16:08.304Z,81.7
2015-10-22T11:17:08.243Z,82
2015-10-22T11:18:08.216Z,82
2015-10-22T11:19:08.140Z,81.8
2015-10-22T11:20:08.096Z,81.9
2015-10-22T11:21:08.036Z,81
2015-10-22T11:22:07.976Z,81.4
2015-10-22T11:23:07.932Z,81.4
2015-10-22T11:24:07.888Z,81.9
2015-10-22T11:25:07.828Z,82.2
2015-10-22T11:26:07.785Z,82.3
2015-10-22T11:27:07.724Z,82.3
2015-10-22T11:28:07.681Z,82.5
2015-10-22T11:29:07.620Z,82.3
2015-10-22T11:30:07.576Z,81.9
2015-10-22T11:31:07.532Z,81.9
2015-10-22T11:32:07.473Z,82.6
2015-10-22T11:33:07.412Z,82.4
2015-10-22T11:34:07.353Z,82.2
2015-10-22T11:35:07.309Z,82.7
2015-10-22T11:36:07.265Z,83
2015-10-22T11:37:07.206Z,82.6
2015-10-22T11:38:07.145Z,82.9
2015-10-22T11:39:07.101Z,82.9
2015-10-22T11:40:07.056Z,83.4
2015-10-22T11:41:06.997Z,83.4
2015-10-22T11:42:06.937Z,83.8
2015-10-22T11:43:06.908Z,84.3
2015-10-22T11:44:06.830Z,84.7
2015-10-22T11:45:06.786Z,84.3
2015-10-22T11:46:06.727Z,84.8
2015-10-22T11:47:06.682Z,84.1
2015-10-22T11:48:06.638Z,84.5
2015-10-22T11:49:06.578Z,84.6
2015-10-22T11:50:06.534Z,85.4
2015-10-22T11:51:06.475Z,85.6
2015-10-22T11:52:06.430Z,85.8
2015-10-22T11:53:06.371Z,85.8
2015-10-22T11:54:06.327Z,85.8
2015-10-22T11:55:06.266Z,86.3
2015-10-22T11:56:06.222Z,86.4
2015-10-22T11:57:06.167Z,87.5
2015-10-22T11:58:06.122Z,87.8
2015-10-22T11:59:06.094Z,88.7
2015-10-22T12:00:06.003Z,89.3
2015-10-22T12:01:05.943Z,89.7
2015-10-22T12:02:05.899Z,89.8
2015-10-22T12:03:05.855Z,89.6
2015-10-22T12:04:05.795Z,90.1
2015-10-22T12:05:05.751Z,89.9
2015-10-22T12:06:05.691Z,89.8
2015-10-22T12:07:05.631Z,89.8
2015-10-22T12:08:05.586Z,89.9
2015-10-22T12:09:05.527Z,89.8
2015-10-22T12:10:05.483Z,89.6
2015-10-22T12:11:05.423Z,90.2
2015-10-22T12:12:05.379Z,90
2015-10-22T12:13:05.319Z,89.6
2015-10-22T12:14:05.511Z,89.7
2015-10-22T12:15:05.216Z,90.8
2015-10-22T12:16:05.187Z,90.6
2015-10-22T12:17:05.111Z,90.8
2015-10-22T12:18:05.052Z,90.2
2015-10-22T12:19:05.023Z,89.7
2015-10-22T12:20:05.182Z,89.8
2015-10-22T12:21:04.904Z,89.9
2015-10-22T12:22:04.844Z,89.9
2015-10-22T12:23:04.800Z,89.8
2015-10-22T12:24:04.740Z,89.5
2015-10-22T12:25:04.696Z,89.4
2015-10-22T12:26:04.635Z,89.6
2015-10-22T12:27:04.591Z,89.3
2015-10-22T12:28:04.548Z,89
2015-10-22T12:29:04.488Z,89
2015-10-22T12:30:04.429Z,88.9
2015-10-22T12:31:04.384Z,88.3
2015-10-22T12:32:04.324Z,88.5
2015-10-22T12:33:04.280Z,88.2
2015-10-22T12:34:04.221Z,88.3
2015-10-22T12:35:04.192Z,88.7
2015-10-22T12:36:04.116Z,88.3
2015-10-22T12:37:03.322Z,88.5
2015-10-22T12:38:04.028Z,88.3
2015-10-22T12:39:03.968Z,87.8
2015-10-22T12:40:03.909Z,86.8
2015-10-22T12:41:03.865Z,86.4
2015-10-22T12:42:03.805Z,86.2
2015-10-22T12:43:03.760Z,86.4
2015-10-22T12:44:03.701Z,86.5
2015-10-22T12:45:03.656Z,86.2
2015-10-22T12:46:03.598Z,85.9
2015-10-22T12:47:03.553Z,86
2015-10-22T12:48:03.492Z,86.3
2015-10-22T12:49:03.464Z,86.4
2015-10-22T12:50:03.389Z,86.5
2015-10-22T12:51:03.361Z,86.8
2015-10-22T12:52:03.284Z,87.1
2015-10-22T12:53:03.241Z,87.2
2015-10-22T12:54:03.181Z,86.9
2015-10-22T12:55:03.137Z,86.6
2015-10-22T12:56:03.077Z,87
2015-10-22T12:57:03.033Z,86.5
2015-10-22T12:58:03.208Z,86.3
2015-10-22T12:59:02.926Z,86.5
2015-10-22T13:00:02.882Z,85.9
2015-10-22T13:01:02.823Z,86.1
2015-10-22T13:02:02.763Z,85.6
2015-10-22T13:03:02.733Z,85.8
2015-10-22T13:04:02.674Z,85.8
2015-10-22T13:05:02.614Z,85.9
2015-10-22T13:06:02.570Z,84.7
2015-10-22T13:07:02.760Z,85.2
2015-10-22T13:08:02.466Z,85.3
2015-10-22T13:09:02.407Z,85.5
2015-10-22T13:10:02.347Z,85.5
2015-10-22T13:11:02.303Z,84.8
2015-10-22T13:12:02.258Z,85
2015-10-22T13:13:02.199Z,84.8
2015-10-22T13:14:02.139Z,84.6
2015-10-22T13:15:02.110Z,84.9
2015-10-22T13:16:02.051Z,84.7
2015-10-22T13:17:01.991Z,85.1
2015-10-22T13:18:01.947Z,85
2015-10-22T13:19:01.888Z,84.6
2015-10-22T13:20:01.843Z,84.5
2015-10-22T13:21:01.783Z,84.1
2015-10-22T13:22:01.738Z,84.5